Delta Pioneer — SYIO — position and weather

sailwx.info

Track history (hours):
 
Tides and Currents Weather Stations Pressure Air Temp Water Temp Dewpoint Dewpoint Depression Visibility Wind Speed Wind Dir Waves Ship Positions

Delta Pioneer

Last reported at 2015-Mar-03 10:08 UTC. Time now 2015-Mar-03 18:49 UTC.
Position N 37°31' E 001°16'.

Length 249 m; draft 8.4 m.

Type: Tanker. MMSI: 240244000.

Date/timePositionNaut miles runAvg speedWind from/ knotsBaromVisibWave heightAir tempDewpointWater temp
2015-Mar-03 10:08N 37°31' E 001°16'811.8
2015-Mar-03 09:28N 37°31' E 001°06'1212.1
2015-Mar-03 08:28N 37°31' E 000°51'1111.9
2015-Mar-03 07:33N 37°30' E 000°37'1212.2
2015-Mar-03 06:33N 37°30' E 000°22'1212.0
2015-Mar-03 05:33N 37°30' E 000°07'1212.3
2015-Mar-03 04:33N 37°29' W 000°09'1212.4
2015-Mar-03 03:33N 37°29' W 000°25'1211.9
2015-Mar-03 02:33N 37°27' W 000°40'1212.0
2015-Mar-03 01:32N 37°29' W 000°55'6 0.2
2015-Mar-01 14:27N 37°34' W 000°59'10 9.3
2015-Mar-01 13:21N 37°25' W 001°05'5 6.8
2015-Mar-01 12:33N 37°21' W 001°10'20811.0
2015-Feb-28 17:33N 36°06' W 005°13'6 6.2
2015-Feb-28 16:33N 36°03' W 005°19'18512.1
2015-Feb-28 01:14N 36°27' W 009°07'2511.6
2015-Feb-27 23:05N 36°40' W 009°33'3111.7
2015-Feb-27 20:24N 37°10' W 009°46'1312.2
2015-Feb-27 19:18N 37°23' W 009°50'1012.2
2015-Feb-27 18:27N 37°33' W 009°52'1112.0
2015-Feb-27 17:33N 37°43' W 009°55'10111.9
2015-Feb-27 09:04N 39°24' W 010°12'1112.5
2015-Feb-27 08:13N 39°34' W 010°12'912.3
2015-Feb-27 07:29N 39°43' W 010°12'  
2015-Feb-24 03:31N 50°27' W 000°24'19 8.8
2015-Feb-24 01:20N 50°31' E 000°05'7 6.1
2015-Feb-24 00:10N 50°34' E 000°16'4 6.4
2015-Feb-23 23:33N 50°35' E 000°22'8 7.7
2015-Feb-23 22:33N 50°37' E 000°33'1010.1
2015-Feb-23 21:33N 50°43' E 000°46'1211.8
2015-Feb-23 20:33N 50°50' E 001°01'1211.6
2015-Feb-23 19:33N 50°58' E 001°15'1010.4
2015-Feb-23 18:33N 51°05' E 001°28'8 8.4
2015-Feb-23 17:33N 51°10' E 001°37'8 8.1
2015-Feb-23 16:33N 51°16' E 001°47'8 8.3
2015-Feb-23 15:33N 51°23' E 001°53'7 7.4
2015-Feb-23 14:33N 51°29' E 001°59'9 9.0
2015-Feb-23 13:33N 51°36' E 002°08'  
Track history (hours):
 
Tides and Currents Weather Stations Pressure Air Temp Water Temp Dewpoint Dewpoint Depression Visibility Wind Speed Wind Dir Waves Ship Positions

Delta Pioneer

Last reported at 2015-Mar-03 10:08 UTC. Time now 2015-Mar-03 18:49 UTC.
Position N 37°31' E 001°16'.

Length 249 m; draft 8.4 m.

Type: Tanker. MMSI: 240244000.

Date/timePositionNaut miles runAvg speedWind from/ knotsBaromVisibWave heightAir tempDewpointWater temp
2015-Mar-03 10:08N 37°31' E 001°16'811.8
2015-Mar-03 09:28N 37°31' E 001°06'1212.1
2015-Mar-03 08:28N 37°31' E 000°51'1111.9
2015-Mar-03 07:33N 37°30' E 000°37'1212.2
2015-Mar-03 06:33N 37°30' E 000°22'1212.0
2015-Mar-03 05:33N 37°30' E 000°07'1212.3
2015-Mar-03 04:33N 37°29' W 000°09'1212.4
2015-Mar-03 03:33N 37°29' W 000°25'1211.9
2015-Mar-03 02:33N 37°27' W 000°40'1212.0
2015-Mar-03 01:32N 37°29' W 000°55'6 0.2
2015-Mar-01 14:27N 37°34' W 000°59'10 9.3
2015-Mar-01 13:21N 37°25' W 001°05'5 6.8
2015-Mar-01 12:33N 37°21' W 001°10'20811.0
2015-Feb-28 17:33N 36°06' W 005°13'6 6.2
2015-Feb-28 16:33N 36°03' W 005°19'18512.1
2015-Feb-28 01:14N 36°27' W 009°07'2511.6
2015-Feb-27 23:05N 36°40' W 009°33'3111.7
2015-Feb-27 20:24N 37°10' W 009°46'1312.2
2015-Feb-27 19:18N 37°23' W 009°50'1012.2
2015-Feb-27 18:27N 37°33' W 009°52'1112.0
2015-Feb-27 17:33N 37°43' W 009°55'10111.9
2015-Feb-27 09:04N 39°24' W 010°12'1112.5
2015-Feb-27 08:13N 39°34' W 010°12'912.3
2015-Feb-27 07:29N 39°43' W 010°12'  
2015-Feb-24 03:31N 50°27' W 000°24'19 8.8
2015-Feb-24 01:20N 50°31' E 000°05'7 6.1
2015-Feb-24 00:10N 50°34' E 000°16'4 6.4
2015-Feb-23 23:33N 50°35' E 000°22'8 7.7
2015-Feb-23 22:33N 50°37' E 000°33'1010.1
2015-Feb-23 21:33N 50°43' E 000°46'1211.8
2015-Feb-23 20:33N 50°50' E 001°01'1211.6
2015-Feb-23 19:33N 50°58' E 001°15'1010.4
2015-Feb-23 18:33N 51°05' E 001°28'8 8.4
2015-Feb-23 17:33N 51°10' E 001°37'8 8.1
2015-Feb-23 16:33N 51°16' E 001°47'8 8.3
2015-Feb-23 15:33N 51°23' E 001°53'7 7.4
2015-Feb-23 14:33N 51°29' E 001°59'9 9.0
2015-Feb-23 13:33N 51°36' E 002°08'  

Dump ship's entire track history